Time;durP1;ratioP1;P1;durP2;ratioP2;P2;SDS_P1;SDS_P2;PMS_P1;PMS_P2;Temp;Humidity;BMP_temperature;BMP_pressure;BME280_temperature;BME280_humidity;BME280_pressure;Samples;Min_cycle;Max_cycle;Signal;HPM_P1;HPM_P2
2021/01/09 00:00:21;;;;;;;29.92;20.75;;;;;;;1.57;72.27;99164.24;1798371;78;21151;-37
2021/01/09 00:02:49;;;;;;;28.97;19.77;;;;;;;1.55;72.35;99179.02;1796058;78;21191;-37
2021/01/09 00:05:18;;;;;;;27.90;19.62;;;;;;;1.53;72.47;99175.84;1756230;81;21120;-37
2021/01/09 00:07:47;;;;;;;28.35;20.77;;;;;;;1.52;72.51;99166.24;1784909;80;21205;-37
2021/01/09 00:10:15;;;;;;;32.33;21.17;;;;;;;1.51;72.45;99170.00;1785086;79;21181;-38
2021/01/09 00:12:44;;;;;;;32.80;21.25;;;;;;;1.49;72.71;99173.54;1787623;80;21074;-37
2021/01/09 00:15:13;;;;;;;28.38;20.10;;;;;;;1.48;72.85;99171.41;1822697;78;21114;-37
2021/01/09 00:17:41;;;;;;;29.37;19.95;;;;;;;1.51;72.87;99171.34;1777494;80;21184;-37
2021/01/09 00:20:14;;;;;;;28.38;19.17;;;;;;;1.57;72.77;99170.92;1782405;79;21284;-37
2021/01/09 00:22:43;;;;;;;30.68;19.95;;;;;;;1.65;72.62;99165.38;1783774;80;21184;-37
2021/01/09 00:25:13;;;;;;;32.85;20.20;;;;;;;1.67;72.50;99167.21;1788222;79;21043;-37
2021/01/09 00:27:41;;;;;;;28.60;17.95;;;;;;;1.64;72.54;99169.16;1804362;79;21178;-37
2021/01/09 00:30:16;;;;;;;31.85;21.93;;;;;;;1.61;72.52;99170.55;1809763;79;21158;-37
2021/01/09 00:32:43;;;;;;;;;;;;;;;1.55;72.68;99166.42;1808628;79;21365;-37
2021/01/09 00:35:12;;;;;;;33.10;22.17;;;;;;;1.57;72.77;99163.45;1753147;80;20285;-37
2021/01/09 00:37:40;;;;;;;31.23;19.77;;;;;;;1.47;73.14;99171.16;1792493;80;21126;-37
2021/01/09 00:40:11;;;;;;;30.75;21.95;;;;;;;1.51;73.10;99168.66;1787889;80;21525;-37
2021/01/09 00:42:40;;;;;;;30.23;21.30;;;;;;;1.48;72.96;99171.41;1766555;80;21145;-37
2021/01/09 00:45:12;;;;;;;26.75;18.23;;;;;;;1.51;73.05;99168.66;1781637;80;21028;-37
2021/01/09 00:47:40;;;;;;;31.17;20.68;;;;;;;1.56;73.05;99171.22;1791112;78;21153;-37
2021/01/09 00:51:04;;;;;;;27.45;19.05;;;;;;;1.60;73.14;99168.17;1809588;78;22632;-37
2021/01/09 00:53:32;;;;;;;32.17;20.97;;;;;;;1.52;73.24;99164.91;1782289;79;20977;-37
2021/01/09 00:56:00;;;;;;;31.75;22.02;;;;;;;1.51;73.25;99164.66;1776001;78;21434;-37
2021/01/09 00:58:28;;;;;;;30.68;20.95;;;;;;;1.56;73.21;99169.87;1812002;78;21576;-37
2021/01/09 01:00:56;;;;;;;35.40;23.07;;;;;;;1.61;73.01;99163.87;1814953;78;20965;-37
2021/01/09 01:03:24;;;;;;;38.25;24.23;;;;;;;1.60;72.98;99158.82;1779199;79;21032;-37
2021/01/09 01:05:53;;;;;;;35.80;22.77;;;;;;;1.54;73.10;99156.84;1790874;79;21302;-37
2021/01/09 01:08:22;;;;;;;32.00;22.27;;;;;;;1.17;73.26;99095.23;1748995;80;22170;-37
2021/01/09 01:10:50;;;;;;;29.67;20.23;;;;;;;1.54;73.41;99152.05;1779403;80;21047;-37
2021/01/09 01:13:18;;;;;;;33.45;22.95;;;;;;;1.60;73.22;99149.47;1771694;80;20961;-37
2021/01/09 01:15:47;;;;;;;32.17;22.02;;;;;;;1.59;73.23;99147.37;1774435;80;21425;-37
2021/01/09 01:18:15;;;;;;;32.45;22.40;;;;;;;1.59;73.25;99149.25;1746983;81;21142;-37
2021/01/09 01:20:44;;;;;;;33.08;21.65;;;;;;;1.56;73.32;99141.28;1751365;81;21398;-37
2021/01/09 01:23:12;;;;;;;32.42;22.42;;;;;;;1.60;73.22;99147.59;1737064;81;21016;-37
2021/01/09 01:25:40;;;;;;;34.08;22.80;;;;;;;1.68;73.04;99151.42;1751274;80;21582;-37
2021/01/09 01:28:08;;;;;;;35.17;23.18;;;;;;;1.68;73.05;99149.55;1732697;80;21130;-37
2021/01/09 01:30:37;;;;;;;32.15;21.90;;;;;;;1.62;72.97;99147.30;1752885;80;21215;-37
2021/01/09 01:33:05;;;;;;;31.02;21.33;;;;;;;1.54;73.20;99145.37;1761445;80;21394;-37
2021/01/09 01:35:33;;;;;;;33.33;22.80;;;;;;;1.57;73.21;99142.08;1755693;81;21170;-37
2021/01/09 01:38:02;;;;;;;34.23;23.35;;;;;;;1.62;73.17;99147.30;1763119;81;21605;-37
2021/01/09 01:40:30;;;;;;;35.17;23.65;;;;;;;1.57;73.25;99139.41;1738744;81;21652;-37
2021/01/09 01:42:59;;;;;;;34.95;23.77;;;;;;;1.54;73.40;99136.81;1740062;81;21155;-37
2021/01/09 01:45:27;;;;;;;34.88;23.10;;;;;;;1.53;73.39;99145.13;1740545;80;21443;-37
2021/01/09 01:47:56;;;;;;;34.20;23.50;;;;;;;1.55;73.47;99142.38;1740308;82;21044;-37
2021/01/09 01:50:24;;;;;;;35.88;24.47;;;;;;;1.62;73.32;99133.94;1736494;82;21169;-37
2021/01/09 01:52:52;;;;;;;33.23;23.45;;;;;;;1.61;73.36;99137.70;1798443;79;21139;-37
2021/01/09 01:55:20;;;;;;;35.98;24.20;;;;;;;1.59;73.43;99139.91;1772334;79;21181;-37
2021/01/09 01:57:51;;;;;;;38.10;23.50;;;;;;;1.55;73.49;99129.02;1790685;79;21368;-37
2021/01/09 02:00:24;;;;;;;32.23;22.90;;;;;;;1.59;73.55;99130.55;1733369;82;21155;-37
2021/01/09 02:02:52;;;;;;;34.58;22.85;;;;;;;1.65;73.44;99127.97;1741476;82;21580;-37
2021/01/09 02:05:30;;;;;;;28.73;19.42;;;;;;;1.64;73.42;99129.09;1742052;81;21154;-37
2021/01/09 02:08:02;;;;;;;33.35;21.57;;;;;;;1.55;73.48;99118.91;1735922;81;21207;-37
2021/01/09 02:10:30;;;;;;;27.73;18.57;;;;;;;1.49;73.75;99117.45;1770904;81;21234;-37
2021/01/09 02:13:19;;;;;;;31.40;21.93;;;;;;;1.53;73.79;99120.53;1785542;79;21550;-37
2021/01/09 02:15:50;;;;;;;34.95;23.67;;;;;;;1.59;73.75;99120.66;1790772;79;21131;-37
2021/01/09 02:18:21;;;;;;;32.73;22.32;;;;;;;1.59;73.85;99121.20;1794474;79;21106;-37
2021/01/09 02:20:50;;;;;;;35.78;23.60;;;;;;;1.56;73.79;99123.92;1743605;80;21122;-37
2021/01/09 02:23:25;;;;;;;32.48;24.15;;;;;;;1.59;73.80;99118.53;1779695;79;21419;-37
2021/01/09 02:25:53;;;;;;;30.08;22.00;;;;;;;1.64;73.69;99118.40;1785620;79;21020;-37
2021/01/09 02:28:22;;;;;;;33.55;22.98;;;;;;;1.63;73.72;99113.59;1733377;81;21402;-37
2021/01/09 02:30:50;;;;;;;27.20;17.83;;;;;;;1.64;73.68;99118.40;1733141;82;21197;-37
2021/01/09 02:33:21;;;;;;;40.08;24.82;;;;;;;1.61;73.73;99118.45;1722629;82;21159;-37
2021/01/09 02:35:50;;;;;;;34.00;23.30;;;;;;;1.60;73.79;99117.41;1735975;82;21217;-37
2021/01/09 02:38:18;;;;;;;27.97;18.07;;;;;;;1.66;73.67;99116.98;1722195;82;21179;-37
2021/01/09 02:40:49;;;;;;;35.63;24.20;;;;;;;1.70;73.45;99119.83;1733131;81;21645;-37
2021/01/09 02:43:18;;;;;;;37.48;23.67;;;;;;;1.67;73.42;99117.77;1742569;81;21159;-37
2021/01/09 02:45:46;;;;;;;35.38;23.30;;;;;;;1.62;73.50;99114.69;1744839;81;21187;-37
2021/01/09 02:48:15;;;;;;;34.48;23.45;;;;;;;1.64;73.52;99117.06;1724857;81;22169;-37
2021/01/09 02:50:43;;;;;;;36.30;24.80;;;;;;;1.66;73.42;99117.53;1721679;81;21633;-37
2021/01/09 02:53:11;;;;;;;32.73;23.02;;;;;;;1.68;73.52;99120.70;1730878;81;21035;-37
2021/01/09 02:55:42;;;;;;;37.65;23.95;;;;;;;1.64;73.47;99119.19;1728633;83;21162;-37
2021/01/09 02:58:10;;;;;;;33.65;21.90;;;;;;;1.56;73.63;99119.91;1772601;78;21151;-37
2021/01/09 03:00:39;;;;;;;34.50;23.60;;;;;;;1.56;73.74;99113.78;1777065;79;21440;-37
2021/01/09 03:03:07;;;;;;;33.23;23.32;;;;;;;1.56;73.67;99107.09;1776156;79;21225;-37
2021/01/09 03:05:36;;;;;;;37.23;23.73;;;;;;;1.55;73.86;99110.89;1771145;80;21150;-37
2021/01/09 03:08:06;;;;;;;30.95;21.20;;;;;;;1.55;73.87;99113.56;1780041;79;21660;-37
2021/01/09 03:10:34;;;;;;;33.13;22.60;;;;;;;1.53;73.92;99105.84;1767023;78;21147;-37
2021/01/09 03:13:03;;;;;;;31.37;22.27;;;;;;;1.55;74.01;99109.55;1762139;79;22281;-37
2021/01/09 03:15:31;;;;;;;35.85;23.42;;;;;;;1.57;73.89;99110.81;1762702;79;21648;-37
2021/01/09 03:18:00;;;;;;;32.35;21.95;;;;;;;1.58;73.82;99109.72;1765882;79;21123;-37
2021/01/09 03:20:29;;;;;;;32.35;21.70;;;;;;;1.55;73.96;99102.88;1779007;78;21194;-37
2021/01/09 03:22:57;;;;;;;35.90;24.37;;;;;;;1.51;74.02;99108.56;1773500;78;21163;-37
2021/01/09 03:25:25;;;;;;;34.90;23.55;;;;;;;1.49;74.11;99108.09;1780978;80;21158;-37
2021/01/09 03:27:53;;;;;;;36.80;24.65;;;;;;;1.53;74.10;99109.05;1780602;78;21150;-37
2021/01/09 03:30:23;;;;;;;39.23;25.85;;;;;;;1.53;74.12;99109.84;1746500;80;21133;-37
2021/01/09 03:32:51;;;;;;;34.85;23.73;;;;;;;1.51;74.18;99110.69;1778162;78;21138;-37
2021/01/09 03:35:22;;;;;;;35.58;24.10;;;;;;;1.49;74.22;99107.55;1780970;80;21190;-37
2021/01/09 03:37:49;;;;;;;33.58;23.92;;;;;;;1.52;74.13;99112.81;1767412;79;25108;-37
2021/01/09 03:40:18;;;;;;;35.50;24.45;;;;;;;1.57;73.96;99114.02;1769500;79;21589;-37
2021/01/09 03:42:46;;;;;;;38.13;24.63;;;;;;;1.55;74.09;99114.89;1770191;78;21139;-37
2021/01/09 03:45:14;;;;;;;35.85;23.40;;;;;;;1.52;74.22;99114.16;1779651;79;21023;-37
2021/01/09 03:47:43;;;;;;;33.73;22.73;;;;;;;1.51;74.28;99112.02;1780850;80;21138;-37
2021/01/09 03:50:11;;;;;;;33.40;22.93;;;;;;;1.53;74.17;99116.53;1780934;78;22148;-37
2021/01/09 03:52:40;;;;;;;26.03;17.30;;;;;;;1.59;74.11;99123.87;1790983;79;21119;-37
2021/01/09 03:55:10;;;;;;;42.23;24.90;;;;;;;1.61;74.11;99123.00;1786716;80;21294;-37
2021/01/09 03:57:39;;;;;;;32.45;20.50;;;;;;;1.60;74.13;99124.09;1798901;79;21158;-37
2021/01/09 04:00:09;;;;;;;35.88;23.90;;;;;;;1.55;74.10;99129.02;1802374;79;21147;-37
2021/01/09 04:02:39;;;;;;;35.80;23.77;;;;;;;1.55;74.11;99126.91;1790601;79;21305;-37
2021/01/09 04:05:09;;;;;;;;;;;;;;;1.62;74.11;99131.27;1789521;80;21118;-37
2021/01/09 04:07:38;;;;;;;36.42;23.83;;;;;;;1.31;73.97;99078.59;1786326;79;20193;-37
2021/01/09 04:10:07;;;;;;;37.63;24.55;;;;;;;1.51;74.19;99126.72;1787472;79;21103;-37
2021/01/09 04:12:36;;;;;;;38.08;24.52;;;;;;;1.51;74.33;99125.37;1797312;79;21036;-37
2021/01/09 04:15:06;;;;;;;35.65;23.87;;;;;;;1.58;74.28;99131.64;1799764;79;21203;-37
2021/01/09 04:17:34;;;;;;;38.08;25.48;;;;;;;1.66;74.06;99134.90;1788854;79;21154;-37
2021/01/09 04:20:05;;;;;;;39.20;26.12;;;;;;;1.68;73.95;99132.72;1762641;79;20952;-37
2021/01/09 04:22:33;;;;;;;35.38;24.77;;;;;;;1.68;74.01;99134.05;1802401;79;26713;-37
2021/01/09 04:25:01;;;;;;;37.95;24.50;;;;;;;1.66;73.93;99135.69;1802229;79;21570;-37
2021/01/09 04:27:30;;;;;;;38.00;25.30;;;;;;;1.65;74.00;99139.99;1732749;81;21439;-37
2021/01/09 04:29:58;;;;;;;36.60;25.55;;;;;;;1.68;73.96;99140.73;1750837;82;21190;-37
2021/01/09 04:32:26;;;;;;;36.42;25.17;;;;;;;1.72;73.96;99140.36;1729818;81;21119;-37
2021/01/09 04:34:54;;;;;;;35.83;24.82;;;;;;;1.70;74.00;99138.53;1749740;81;21154;-37
2021/01/09 04:37:22;;;;;;;37.55;25.02;;;;;;;1.66;74.13;99140.23;1747154;81;21027;-37
2021/01/09 04:39:50;;;;;;;37.90;24.87;;;;;;;1.62;74.32;99139.28;1708103;82;21209;-37
2021/01/09 04:42:19;;;;;;;36.63;24.85;;;;;;;1.63;74.39;99138.19;1710913;82;21155;-37
2021/01/09 04:44:47;;;;;;;38.78;26.07;;;;;;;1.70;74.52;99141.20;1754361;81;21137;-37
2021/01/09 04:47:15;;;;;;;36.38;24.35;;;;;;;1.69;74.60;99142.32;1767174;79;21514;-37
2021/01/09 04:49:44;;;;;;;38.40;25.92;;;;;;;1.65;74.76;99141.33;1777525;79;21221;-37
2021/01/09 04:52:12;;;;;;;39.58;26.20;;;;;;;1.60;74.95;99141.45;1751850;80;21331;-37
2021/01/09 04:54:40;;;;;;;36.58;25.50;;;;;;;1.59;75.18;99145.25;1749930;82;21173;-37
2021/01/09 04:57:10;;;;;;;38.30;25.62;;;;;;;1.66;75.08;99145.59;1756258;80;21156;-37
2021/01/09 04:59:38;;;;;;;36.90;25.45;;;;;;;1.66;74.98;99148.26;1752895;80;21181;-37
2021/01/09 05:02:07;;;;;;;39.42;26.23;;;;;;;1.61;75.09;99149.72;1781635;80;21167;-37
2021/01/09 05:04:35;;;;;;;38.65;25.27;;;;;;;1.55;75.20;99153.63;1780523;80;21634;-37
2021/01/09 05:07:03;;;;;;;36.95;25.35;;;;;;;1.55;75.25;99152.30;1756123;80;21126;-37
2021/01/09 05:09:33;;;;;;;37.78;24.30;;;;;;;1.60;75.23;99157.48;1756799;80;20973;-37
2021/01/09 05:12:02;;;;;;;40.73;26.50;;;;;;;1.62;75.20;99160.66;1765665;80;21120;-37
2021/01/09 05:14:30;;;;;;;39.78;26.73;;;;;;;1.55;75.24;99158.97;1718952;80;20997;-37
2021/01/09 05:16:59;;;;;;;33.02;23.45;;;;;;;1.51;75.45;99164.66;1773076;80;21339;-37
2021/01/09 05:19:29;;;;;;;32.40;23.25;;;;;;;1.51;75.45;99165.45;1766628;80;21609;-37
2021/01/09 05:21:58;;;;;;;35.03;24.30;;;;;;;1.54;75.33;99163.53;1776594;80;21142;-37
2021/01/09 05:24:26;;;;;;;37.15;24.95;;;;;;;1.57;75.21;99165.58;1757643;80;21154;-37
2021/01/09 05:26:54;;;;;;;42.45;25.85;;;;;;;1.56;75.26;99167.20;1764338;80;21182;-37
2021/01/09 05:29:25;;;;;;;35.58;23.05;;;;;;;1.54;75.33;99168.87;1758006;80;23423;-37
2021/01/09 05:31:54;;;;;;;;;;;;;;;1.52;75.35;99174.26;1761410;80;21151;-37
2021/01/09 05:34:22;;;;;;;38.35;25.32;;;;;;;1.53;75.23;99181.19;1778772;80;20261;-37
2021/01/09 05:36:50;;;;;;;39.67;25.60;;;;;;;1.48;75.40;99183.44;1779403;80;21150;-37
2021/01/09 05:39:18;;;;;;;38.90;25.68;;;;;;;1.48;75.37;99179.97;1773380;80;21609;-37
2021/01/09 05:41:47;;;;;;;42.50;27.10;;;;;;;1.43;75.46;99181.42;1745607;80;21211;-37
2021/01/09 05:44:15;;;;;;;41.37;25.60;;;;;;;1.44;75.62;99188.35;1741498;80;21166;-37
2021/01/09 05:46:44;;;;;;;39.33;24.15;;;;;;;1.51;75.37;99186.83;1768827;80;21099;-37
2021/01/09 05:49:14;;;;;;;37.13;24.87;;;;;;;1.59;75.08;99192.80;1745903;81;21225;-37
2021/01/09 05:51:43;;;;;;;39.50;25.75;;;;;;;1.56;75.10;99193.92;1775110;78;21143;-37
2021/01/09 05:54:11;;;;;;;38.08;25.50;;;;;;;1.51;75.21;99189.49;1792587;79;21339;-37
2021/01/09 05:56:40;;;;;;;41.48;26.40;;;;;;;1.49;75.31;99197.59;1784024;79;21144;-37
2021/01/09 05:59:10;;;;;;;40.08;26.30;;;;;;;1.53;75.25;99195.34;1795696;79;21032;-37
2021/01/09 06:01:38;;;;;;;38.50;25.48;;;;;;;1.62;74.99;99204.20;1772492;79;22118;-37
2021/01/09 06:04:17;;;;;;;38.17;26.30;;;;;;;1.60;74.95;99196.23;1738757;79;21159;-37
2021/01/09 06:06:48;;;;;;;40.00;25.35;;;;;;;1.59;74.98;99205.36;1771878;79;21361;-37
2021/01/09 06:09:23;;;;;;;41.23;27.10;;;;;;;1.55;75.03;99210.50;1765997;79;21005;-37
2021/01/09 06:11:55;;;;;;;39.33;26.27;;;;;;;1.55;75.05;99214.50;1766195;79;21013;-37
2021/01/09 06:14:26;;;;;;;39.65;25.08;;;;;;;1.60;75.08;99224.28;1788899;79;21138;-37
2021/01/09 06:16:55;;;;;;;41.68;27.52;;;;;;;1.62;75.05;99219.44;1781895;79;21143;-37
2021/01/09 06:19:23;;;;;;;41.55;27.42;;;;;;;1.61;75.03;99221.31;1788887;79;21202;-37
2021/01/09 06:21:54;;;;;;;34.18;22.13;;;;;;;1.61;75.09;99219.98;1751115;80;21154;-37
2021/01/09 06:24:23;;;;;;;39.88;25.30;;;;;;;1.63;74.91;99220.48;1783523;79;21133;-37
2021/01/09 06:26:51;;;;;;;37.90;24.72;;;;;;;1.64;74.80;99223.40;1772550;79;21119;-37
2021/01/09 06:29:26;;;;;;;43.55;27.13;;;;;;;1.60;74.95;99226.95;1768340;79;21131;-37
2021/01/09 06:31:59;;;;;;;39.70;25.62;;;;;;;1.55;75.15;99224.43;1773378;79;21203;-37
2021/01/09 06:34:30;;;;;;;36.20;23.75;;;;;;;1.54;75.23;99232.20;1708838;81;21179;-37
2021/01/09 06:37:01;;;;;;;28.45;19.37;;;;;;;1.60;75.06;99234.97;1748559;80;21566;-37
2021/01/09 06:39:36;;;;;;;38.73;26.17;;;;;;;1.64;74.98;99239.98;1742792;82;21139;-37
2021/01/09 06:42:06;;;;;;;44.23;28.42;;;;;;;1.60;75.12;99238.44;1786544;79;21127;-37
2021/01/09 06:44:35;;;;;;;42.73;28.40;;;;;;;1.60;75.12;99241.65;1764550;79;21231;-37
2021/01/09 06:47:03;;;;;;;38.80;26.07;;;;;;;1.57;75.16;99237.72;1772798;79;21159;-37
2021/01/09 06:49:32;;;;;;;37.53;25.40;;;;;;;1.64;75.08;99246.66;1767121;79;21147;-37
2021/01/09 06:52:05;;;;;;;40.50;27.30;;;;;;;1.71;74.95;99245.13;1782389;79;21130;-37
2021/01/09 06:54:45;;;;;;;42.53;26.65;;;;;;;1.69;75.00;99249.97;1767094;79;21750;-37
2021/01/09 06:57:21;;;;;;;43.58;28.20;;;;;;;1.68;75.11;99253.77;1717814;82;21378;-37
2021/01/09 06:59:51;;;;;;;37.13;25.65;;;;;;;1.63;75.23;99253.08;1796970;79;21136;-37
2021/01/09 07:02:28;;;;;;;38.08;25.35;;;;;;;1.64;75.24;99252.80;1717269;82;21139;-37
2021/01/09 07:05:09;;;;;;;39.35;26.37;;;;;;;1.71;74.99;99248.34;1775808;79;21039;-37
2021/01/09 07:07:40;;;;;;;38.70;25.55;;;;;;;1.68;75.15;99257.77;1793698;79;22143;-38
2021/01/09 07:10:16;;;;;;;41.70;27.90;;;;;;;1.63;75.33;99258.43;1737880;79;21162;-38
2021/01/09 07:12:59;;;;;;;42.88;26.60;;;;;;;1.58;75.29;99259.34;1715817;82;21143;-38
2021/01/09 07:15:28;;;;;;;43.17;27.77;;;;;;;1.58;75.56;99251.32;1753311;79;21914;-37
2021/01/09 07:17:58;;;;;;;41.08;26.73;;;;;;;1.62;75.47;99261.64;1753492;79;21029;-37
2021/01/09 07:20:38;;;;;;;42.75;26.73;;;;;;;1.64;75.48;99262.69;1779005;79;22111;-38
2021/01/09 07:23:08;;;;;;;39.45;26.10;;;;;;;1.61;75.42;99257.39;1786070;78;21200;-37
2021/01/09 07:25:40;;;;;;;38.65;26.45;;;;;;;1.61;75.56;99271.29;1788525;78;21186;-37
2021/01/09 07:28:19;;;;;;;40.98;25.92;;;;;;;1.65;75.47;99266.91;1790345;78;21596;-38
2021/01/09 07:30:47;;;;;;;43.40;26.48;;;;;;;1.69;75.28;99267.91;1791017;79;21601;-37
2021/01/09 07:33:16;;;;;;;39.20;24.70;;;;;;;1.69;75.43;99265.24;1759244;80;21133;-38
2021/01/09 07:35:52;;;;;;;38.80;24.10;;;;;;;1.69;75.16;99270.59;1788984;79;21192;-37
2021/01/09 07:38:22;;;;;;;39.45;26.10;;;;;;;1.67;75.21;99272.22;1722279;79;21020;-37
2021/01/09 07:41:00;;;;;;;36.73;25.17;;;;;;;1.68;75.19;99270.34;1736110;79;21176;-37
2021/01/09 07:43:47;;;;;;;39.60;24.72;;;;;;;1.74;74.94;99270.47;1773719;79;21027;-38
2021/01/09 07:46:30;;;;;;;39.00;26.15;;;;;;;1.72;74.77;99273.44;1786633;79;22139;-37
2021/01/09 07:49:00;;;;;;;44.53;26.05;;;;;;;1.70;75.00;99274.81;1777459;79;21215;-38
2021/01/09 07:51:50;;;;;;;37.55;24.77;;;;;;;1.68;74.81;99274.34;1794884;79;21129;-38
2021/01/09 07:54:38;;;;;;;38.43;26.00;;;;;;;1.72;74.80;99282.79;1786133;80;21026;-37
2021/01/09 07:57:22;;;;;;;38.25;24.80;;;;;;;1.80;74.48;99277.80;1783841;80;21130;-38
2021/01/09 08:00:01;;;;;;;35.88;23.95;;;;;;;1.74;74.63;99275.81;1785850;80;21137;-37
2021/01/09 08:02:34;;;;;;;35.83;23.57;;;;;;;1.68;74.59;99273.80;1786051;79;22127;-37
2021/01/09 08:05:19;;;;;;;38.30;24.95;;;;;;;1.70;74.76;99277.48;1786034;80;21619;-37
2021/01/09 08:07:55;;;;;;;35.90;23.95;;;;;;;1.76;74.56;99278.95;1782713;79;21137;-38
2021/01/09 08:10:31;;;;;;;32.03;21.90;;;;;;;1.80;74.32;99280.47;1754791;81;21114;-38
2021/01/09 08:13:06;;;;;;;38.23;25.12;;;;;;;1.79;73.95;99281.05;1768598;80;21141;-38
2021/01/09 08:15:36;;;;;;;32.75;21.48;;;;;;;1.79;73.94;99282.92;1769432;80;21154;-37
2021/01/09 08:18:06;;;;;;;33.48;21.82;;;;;;;1.81;73.97;99278.05;1766677;80;21590;-37
2021/01/09 08:20:34;;;;;;;35.30;22.98;;;;;;;1.84;73.65;99282.80;1776076;80;20975;-37
2021/01/09 08:23:05;;;;;;;34.70;22.93;;;;;;;1.86;73.83;99283.27;1765528;80;21603;-37
2021/01/09 08:25:34;;;;;;;;;;;;;;;1.88;73.70;99285.11;1788651;80;21583;-38
2021/01/09 08:28:04;;;;;;;33.40;21.97;;;;;;;1.90;73.63;99286.38;1785952;80;21731;-38
2021/01/09 08:30:37;;;;;;;35.17;23.25;;;;;;;1.94;73.44;99280.66;1786081;80;21586;-37
2021/01/09 08:33:14;;;;;;;34.08;22.77;;;;;;;2.06;72.77;99282.24;1751266;79;21150;-38
2021/01/09 08:35:48;;;;;;;33.35;21.37;;;;;;;2.08;72.44;99274.69;1783420;80;21132;-38
2021/01/09 08:38:17;;;;;;;36.05;23.30;;;;;;;2.06;72.50;99280.91;1780917;80;21162;-37
2021/01/09 08:40:47;;;;;;;34.83;22.65;;;;;;;2.00;72.31;99282.12;1782276;80;21193;-38
2021/01/09 08:43:15;;;;;;;28.55;20.10;;;;;;;2.02;72.08;99281.83;1754780;81;21021;-37
2021/01/09 08:45:51;;;;;;;36.35;23.25;;;;;;;2.13;71.91;99287.17;1771410;80;21171;-37
2021/01/09 08:48:27;;;;;;;34.67;22.55;;;;;;;2.11;71.80;99281.33;1785847;80;21127;-38
2021/01/09 08:51:15;;;;;;;30.10;19.17;;;;;;;2.08;71.53;99278.70;1782030;80;21165;-37
2021/01/09 08:54:06;;;;;;;33.50;21.45;;;;;;;2.05;71.59;99271.30;1786137;79;21439;-37
2021/01/09 08:56:34;;;;;;;32.40;21.73;;;;;;;2.09;71.23;99274.14;1781897;79;21162;-38
2021/01/09 08:59:08;;;;;;;31.65;21.30;;;;;;;2.10;70.92;99271.17;1753157;81;20959;-38
2021/01/09 09:01:44;;;;;;;31.30;20.40;;;;;;;2.07;70.78;99269.13;1753230;81;21596;-38
2021/01/09 09:04:12;;;;;;;30.77;20.17;;;;;;;2.03;70.50;99270.80;1753324;81;21581;-37
2021/01/09 09:06:44;;;;;;;29.02;20.05;;;;;;;2.05;70.86;99264.62;1782675;80;21334;-41
2021/01/09 09:09:16;;;;;;;33.20;21.52;;;;;;;2.15;71.02;99260.89;1775656;80;21048;-41
2021/01/09 09:11:53;;;;;;;30.27;20.85;;;;;;;2.25;70.32;99261.19;1783861;80;20973;-41
2021/01/09 09:14:21;;;;;;;33.00;21.00;;;;;;;2.28;69.93;99256.55;1766083;80;21394;-41
2021/01/09 09:17:06;;;;;;;32.10;21.17;;;;;;;2.15;69.88;99233.61;1795833;79;21173;-41
2021/01/09 09:19:37;;;;;;;30.23;19.92;;;;;;;2.33;69.60;99251.07;1779756;80;21371;-37
2021/01/09 09:22:06;;;;;;;30.43;20.20;;;;;;;2.37;69.58;99253.40;1781315;79;21550;-37
2021/01/09 09:24:42;;;;;;;31.37;20.08;;;;;;;2.38;69.28;99253.06;1741492;80;21151;-42
2021/01/09 09:27:28;;;;;;;34.73;22.52;;;;;;;2.38;69.37;99246.92;1834864;78;22710;-39
2021/01/09 09:30:13;;;;;;;27.87;20.62;;;;;;;2.33;69.69;99247.85;1807499;79;21146;-38
2021/01/09 09:32:43;;;;;;;32.73;20.88;;;;;;;2.32;69.29;99250.86;1815991;79;21348;-36
2021/01/09 09:35:26;;;;;;;31.00;21.62;;;;;;;2.31;69.24;99250.61;1805979;79;21008;-36
2021/01/09 09:38:04;;;;;;;34.38;22.55;;;;;;;2.29;68.86;99244.77;1785635;79;20995;-36
2021/01/09 09:40:35;;;;;;;32.93;20.40;;;;;;;2.27;69.26;99243.75;1790193;79;20960;-36
2021/01/09 09:43:19;;;;;;;32.28;22.07;;;;;;;2.31;69.06;99239.91;1810592;77;21019;-36
2021/01/09 09:46:03;;;;;;;36.28;23.40;;;;;;;2.27;68.42;99242.41;1798290;79;21391;-37
2021/01/09 09:48:37;;;;;;;31.15;22.40;;;;;;;2.22;68.84;99233.19;1798674;79;21704;-37
2021/01/09 09:51:08;;;;;;;35.10;23.60;;;;;;;2.22;69.03;99235.06;1816152;78;20980;-36
2021/01/09 09:53:38;;;;;;;36.15;22.13;;;;;;;2.34;68.82;99236.61;1812507;79;21011;-37
2021/01/09 09:56:21;;;;;;;36.60;24.27;;;;;;;2.37;68.63;99235.44;1805889;79;21106;-37
2021/01/09 09:59:06;;;;;;;35.63;23.12;;;;;;;2.36;68.61;99236.55;1799932;79;21277;-36
2021/01/09 10:01:35;;;;;;;37.88;24.32;;;;;;;2.35;68.54;99227.49;1792237;79;21549;-36
2021/01/09 10:04:11;;;;;;;32.95;22.70;;;;;;;2.36;68.75;99232.55;1791756;79;21618;-36
2021/01/09 10:06:41;;;;;;;32.98;21.10;;;;;;;2.41;68.68;99232.95;1799679;79;21059;-37
2021/01/09 10:09:14;;;;;;;30.60;21.12;;;;;;;2.57;69.00;99229.54;1741379;82;21165;-36
2021/01/09 10:11:43;;;;;;;33.65;23.22;;;;;;;2.79;68.14;99225.20;1753541;80;21617;-36
2021/01/09 10:14:13;;;;;;;34.18;23.42;;;;;;;2.94;67.43;99226.91;1761800;80;21129;-36
2021/01/09 10:16:41;;;;;;;35.00;22.90;;;;;;;3.09;67.14;99234.25;1752716;80;21176;-36
2021/01/09 10:19:11;;;;;;;35.73;23.80;;;;;;;3.18;66.45;99233.72;1737440;80;21179;-36
2021/01/09 10:21:40;;;;;;;35.23;24.45;;;;;;;3.17;66.09;99238.83;1745197;81;21133;-36
2021/01/09 10:24:09;;;;;;;37.15;24.20;;;;;;;3.06;65.82;99231.09;1738189;81;21313;-36
2021/01/09 10:26:38;;;;;;;35.65;24.37;;;;;;;2.95;66.01;99226.36;1730158;81;21213;-36
2021/01/09 10:29:06;;;;;;;32.07;22.90;;;;;;;2.82;66.08;99224.03;1747195;81;21538;-36
2021/01/09 10:31:38;;;;;;;31.52;22.22;;;;;;;2.77;65.71;99232.75;1734836;81;21122;-36
2021/01/09 10:34:07;;;;;;;33.58;22.73;;;;;;;2.67;66.18;99231.14;1738858;81;21105;-37
2021/01/09 10:36:39;;;;;;;34.20;23.20;;;;;;;2.67;66.11;99227.13;1732626;81;21375;-37
2021/01/09 10:39:07;;;;;;;34.55;24.23;;;;;;;2.69;65.78;99229.51;1712574;82;21179;-36
2021/01/09 10:41:35;;;;;;;37.75;24.63;;;;;;;2.77;66.05;99220.16;1719997;82;21154;-36
2021/01/09 10:44:06;;;;;;;36.55;23.77;;;;;;;2.95;65.75;99223.11;1722013;82;21415;-36
2021/01/09 10:46:34;;;;;;;30.32;21.97;;;;;;;3.24;65.01;99226.56;1713670;82;21561;-36
2021/01/09 10:49:03;;;;;;;27.62;20.17;;;;;;;3.42;62.46;99209.39;1731142;82;22261;-37
2021/01/09 10:51:32;;;;;;;30.75;20.05;;;;;;;3.53;62.92;99212.55;1713549;82;21626;-36
2021/01/09 10:54:04;;;;;;;26.52;18.42;;;;;;;3.57;61.55;99213.48;1723884;82;21194;-36
2021/01/09 10:56:35;;;;;;;30.68;19.82;;;;;;;3.67;60.18;99210.48;1713565;82;21047;-36
2021/01/09 10:59:03;;;;;;;29.60;19.75;;;;;;;3.77;60.27;99209.36;1740558;82;21171;-36
2021/01/09 11:01:32;;;;;;;28.10;19.73;;;;;;;3.93;60.72;99204.50;1732581;82;21392;-36
2021/01/09 11:04:00;;;;;;;27.58;19.07;;;;;;;4.10;58.91;99207.70;1720271;82;21177;-36
2021/01/09 11:06:29;;;;;;;24.45;16.85;;;;;;;4.10;58.22;99202.34;1715516;82;21116;-36
2021/01/09 11:08:57;;;;;;;23.45;15.53;;;;;;;3.93;58.65;99201.82;1713559;82;21330;-36
2021/01/09 11:11:26;;;;;;;23.20;16.15;;;;;;;3.79;59.20;99204.45;1713036;82;21427;-36
2021/01/09 11:13:54;;;;;;;24.72;16.73;;;;;;;3.74;59.66;99195.23;1715352;82;21531;-36
2021/01/09 11:16:24;;;;;;;22.35;15.88;;;;;;;3.70;59.41;99191.06;1718623;82;21174;-37
2021/01/09 11:18:52;;;;;;;20.05;13.18;;;;;;;3.66;59.58;99186.66;1705164;82;21604;-36
2021/01/09 11:21:21;;;;;;;17.62;13.55;;;;;;;3.77;59.91;99199.98;1737349;82;21218;-36
2021/01/09 11:23:49;;;;;;;20.35;13.30;;;;;;;3.94;59.55;99197.25;1713240;82;21142;-37
2021/01/09 11:26:24;;;;;;;24.03;15.63;;;;;;;4.12;59.20;99207.37;1731870;81;21445;-37
2021/01/09 11:28:53;;;;;;;23.95;15.10;;;;;;;4.24;58.47;99201.59;1736844;82;21199;-37
2021/01/09 11:31:22;;;;;;;;;;;;;;;4.24;57.98;99203.48;1757646;81;21200;-36
2021/01/09 11:33:51;;;;;;;20.08;13.88;;;;;;;4.10;57.56;99205.03;1738020;82;20610;-37
2021/01/09 11:36:19;;;;;;;19.60;12.90;;;;;;;3.73;58.57;99207.05;1754088;81;21172;-36
2021/01/09 11:38:48;;;;;;;17.32;11.97;;;;;;;3.45;59.61;99206.61;1748966;81;21181;-36
2021/01/09 11:41:16;;;;;;;15.85;11.68;;;;;;;3.27;60.42;99217.09;1750387;81;21199;-36
2021/01/09 11:43:46;;;;;;;16.00;11.65;;;;;;;3.23;61.03;99216.16;1768968;81;21049;-36